sensor_id;sensor_type;location;lat;lon;timestamp;temperature;humidity
19307;DHT22;9788;48.194;16.318;2024-03-29T00:01:07;8.50;99.90
19307;DHT22;9788;48.194;16.318;2024-03-29T00:03:33;8.50;99.90
19307;DHT22;9788;48.194;16.318;2024-03-29T00:05:59;8.40;99.90
19307;DHT22;9788;48.194;16.318;2024-03-29T00:08:26;8.30;99.90
19307;DHT22;9788;48.194;16.318;2024-03-29T00:10:52;8.40;99.90
19307;DHT22;9788;48.194;16.318;2024-03-29T00:13:21;8.40;99.90
19307;DHT22;9788;48.194;16.318;2024-03-29T00:15:47;8.40;99.90
19307;DHT22;9788;48.194;16.318;2024-03-29T00:18:15;8.40;99.90
19307;DHT22;9788;48.194;16.318;2024-03-29T00:20:41;8.30;99.90
19307;DHT22;9788;48.194;16.318;2024-03-29T00:23:07;8.30;99.90
19307;DHT22;9788;48.194;16.318;2024-03-29T00:25:33;8.20;99.90
19307;DHT22;9788;48.194;16.318;2024-03-29T00:28:00;8.10;99.90
19307;DHT22;9788;48.194;16.318;2024-03-29T00:30:28;8.10;99.90
19307;DHT22;9788;48.194;16.318;2024-03-29T00:32:54;8.10;99.90
19307;DHT22;9788;48.194;16.318;2024-03-29T00:35:21;8.10;99.90
19307;DHT22;9788;48.194;16.318;2024-03-29T00:37:48;8.10;99.90
19307;DHT22;9788;48.194;16.318;2024-03-29T00:40:15;8.10;99.90
19307;DHT22;9788;48.194;16.318;2024-03-29T00:42:42;8.20;99.90
19307;DHT22;9788;48.194;16.318;2024-03-29T00:45:08;8.30;99.90
19307;DHT22;9788;48.194;16.318;2024-03-29T00:47:36;8.30;99.90
19307;DHT22;9788;48.194;16.318;2024-03-29T00:50:03;8.20;99.90
19307;DHT22;9788;48.194;16.318;2024-03-29T00:52:30;8.20;99.90
19307;DHT22;9788;48.194;16.318;2024-03-29T00:54:56;8.10;99.90
19307;DHT22;9788;48.194;16.318;2024-03-29T00:57:22;8.00;99.90
19307;DHT22;9788;48.194;16.318;2024-03-29T00:59:48;7.90;99.90
19307;DHT22;9788;48.194;16.318;2024-03-29T01:02:15;7.90;99.90
19307;DHT22;9788;48.194;16.318;2024-03-29T01:04:43;7.90;99.90
19307;DHT22;9788;48.194;16.318;2024-03-29T01:07:09;7.90;99.90
19307;DHT22;9788;48.194;16.318;2024-03-29T01:09:35;7.90;99.90
19307;DHT22;9788;48.194;16.318;2024-03-29T01:12:02;7.90;99.90
19307;DHT22;9788;48.194;16.318;2024-03-29T01:14:28;7.80;99.90
19307;DHT22;9788;48.194;16.318;2024-03-29T01:16:54;7.70;99.90
19307;DHT22;9788;48.194;16.318;2024-03-29T01:19:20;7.50;99.90
19307;DHT22;9788;48.194;16.318;2024-03-29T01:21:48;7.30;99.90
19307;DHT22;9788;48.194;16.318;2024-03-29T01:24:15;7.10;99.90
19307;DHT22;9788;48.194;16.318;2024-03-29T01:26:41;7.00;99.90
19307;DHT22;9788;48.194;16.318;2024-03-29T01:29:08;7.00;99.90
19307;DHT22;9788;48.194;16.318;2024-03-29T01:31:34;7.00;99.90
19307;DHT22;9788;48.194;16.318;2024-03-29T01:34:00;7.00;99.90
19307;DHT22;9788;48.194;16.318;2024-03-29T01:36:26;6.90;99.90
19307;DHT22;9788;48.194;16.318;2024-03-29T01:38:54;6.80;99.90
19307;DHT22;9788;48.194;16.318;2024-03-29T01:41:20;6.70;99.90
19307;DHT22;9788;48.194;16.318;2024-03-29T01:43:46;6.60;99.90
19307;DHT22;9788;48.194;16.318;2024-03-29T01:46:14;6.50;99.90
19307;DHT22;9788;48.194;16.318;2024-03-29T01:48:41;6.50;99.90
19307;DHT22;9788;48.194;16.318;2024-03-29T01:51:10;6.60;99.90
19307;DHT22;9788;48.194;16.318;2024-03-29T01:53:38;6.50;99.90
19307;DHT22;9788;48.194;16.318;2024-03-29T01:56:08;6.50;99.90
19307;DHT22;9788;48.194;16.318;2024-03-29T01:58:40;6.60;99.90
19307;DHT22;9788;48.194;16.318;2024-03-29T02:01:08;6.80;99.90
19307;DHT22;9788;48.194;16.318;2024-03-29T02:03:35;6.90;99.90
19307;DHT22;9788;48.194;16.318;2024-03-29T02:06:03;6.80;99.90
19307;DHT22;9788;48.194;16.318;2024-03-29T02:08:32;6.70;99.90
19307;DHT22;9788;48.194;16.318;2024-03-29T02:11:00;6.60;99.90
19307;DHT22;9788;48.194;16.318;2024-03-29T02:13:29;6.50;99.90
19307;DHT22;9788;48.194;16.318;2024-03-29T02:15:57;6.50;99.90
19307;DHT22;9788;48.194;16.318;2024-03-29T02:18:24;6.40;99.90
19307;DHT22;9788;48.194;16.318;2024-03-29T02:20:52;6.40;99.90
19307;DHT22;9788;48.194;16.318;2024-03-29T02:23:20;6.40;99.90
19307;DHT22;9788;48.194;16.318;2024-03-29T02:25:52;6.40;99.90
19307;DHT22;9788;48.194;16.318;2024-03-29T02:28:20;6.30;99.90
19307;DHT22;9788;48.194;16.318;2024-03-29T02:30:49;6.30;99.90
19307;DHT22;9788;48.194;16.318;2024-03-29T02:33:16;6.30;99.90
19307;DHT22;9788;48.194;16.318;2024-03-29T02:35:42;6.20;99.90
19307;DHT22;9788;48.194;16.318;2024-03-29T02:38:10;6.30;99.90
19307;DHT22;9788;48.194;16.318;2024-03-29T02:40:37;6.20;99.90
19307;DHT22;9788;48.194;16.318;2024-03-29T02:43:05;6.20;99.90
19307;DHT22;9788;48.194;16.318;2024-03-29T02:45:33;6.20;99.90
19307;DHT22;9788;48.194;16.318;2024-03-29T02:47:59;6.20;99.90
19307;DHT22;9788;48.194;16.318;2024-03-29T02:50:29;6.10;99.90
19307;DHT22;9788;48.194;16.318;2024-03-29T02:52:57;6.10;99.90
19307;DHT22;9788;48.194;16.318;2024-03-29T02:55:25;6.00;99.90
19307;DHT22;9788;48.194;16.318;2024-03-29T02:57:52;5.90;99.90
19307;DHT22;9788;48.194;16.318;2024-03-29T03:00:21;5.90;99.90
19307;DHT22;9788;48.194;16.318;2024-03-29T03:02:47;5.90;99.90
19307;DHT22;9788;48.194;16.318;2024-03-29T03:05:14;5.90;99.90
19307;DHT22;9788;48.194;16.318;2024-03-29T03:07:40;5.90;99.90
19307;DHT22;9788;48.194;16.318;2024-03-29T03:10:25;6.00;99.90
19307;DHT22;9788;48.194;16.318;2024-03-29T03:13:09;6.10;99.90
19307;DHT22;9788;48.194;16.318;2024-03-29T03:15:38;6.00;99.90
19307;DHT22;9788;48.194;16.318;2024-03-29T03:18:05;6.00;99.90
19307;DHT22;9788;48.194;16.318;2024-03-29T03:20:32;5.90;99.90
19307;DHT22;9788;48.194;16.318;2024-03-29T03:22:59;5.80;99.90
19307;DHT22;9788;48.194;16.318;2024-03-29T03:25:27;5.90;99.90
19307;DHT22;9788;48.194;16.318;2024-03-29T03:27:53;5.90;99.90
19307;DHT22;9788;48.194;16.318;2024-03-29T03:30:20;6.00;99.90
19307;DHT22;9788;48.194;16.318;2024-03-29T03:32:49;6.00;99.90
19307;DHT22;9788;48.194;16.318;2024-03-29T03:35:15;5.90;99.90
19307;DHT22;9788;48.194;16.318;2024-03-29T03:37:43;5.90;99.90
19307;DHT22;9788;48.194;16.318;2024-03-29T03:40:10;5.80;99.90
19307;DHT22;9788;48.194;16.318;2024-03-29T03:42:37;5.70;99.90
19307;DHT22;9788;48.194;16.318;2024-03-29T03:45:05;5.60;99.90
19307;DHT22;9788;48.194;16.318;2024-03-29T03:47:32;5.60;99.90
19307;DHT22;9788;48.194;16.318;2024-03-29T03:50:01;5.50;99.90
19307;DHT22;9788;48.194;16.318;2024-03-29T03:52:29;5.50;99.90
19307;DHT22;9788;48.194;16.318;2024-03-29T03:54:55;5.50;99.90
19307;DHT22;9788;48.194;16.318;2024-03-29T03:57:22;5.40;99.90
19307;DHT22;9788;48.194;16.318;2024-03-29T03:59:49;5.40;99.90
19307;DHT22;9788;48.194;16.318;2024-03-29T04:02:16;5.50;99.90
19307;DHT22;9788;48.194;16.318;2024-03-29T04:04:42;5.50;99.90
19307;DHT22;9788;48.194;16.318;2024-03-29T04:07:14;5.50;99.90
19307;DHT22;9788;48.194;16.318;2024-03-29T04:09:42;5.50;99.90
19307;DHT22;9788;48.194;16.318;2024-03-29T04:12:10;5.50;99.90
19307;DHT22;9788;48.194;16.318;2024-03-29T04:14:36;5.40;99.90
19307;DHT22;9788;48.194;16.318;2024-03-29T04:17:04;5.30;99.90
19307;DHT22;9788;48.194;16.318;2024-03-29T04:19:31;5.30;99.90
19307;DHT22;9788;48.194;16.318;2024-03-29T04:21:58;5.20;99.90
19307;DHT22;9788;48.194;16.318;2024-03-29T04:24:28;5.10;99.90
19307;DHT22;9788;48.194;16.318;2024-03-29T04:26:55;5.10;99.90
19307;DHT22;9788;48.194;16.318;2024-03-29T04:29:21;5.00;99.90
19307;DHT22;9788;48.194;16.318;2024-03-29T04:31:48;4.90;99.90
19307;DHT22;9788;48.194;16.318;2024-03-29T04:34:14;4.90;99.90
19307;DHT22;9788;48.194;16.318;2024-03-29T04:36:42;4.90;99.90
19307;DHT22;9788;48.194;16.318;2024-03-29T04:39:09;4.80;99.90
19307;DHT22;9788;48.194;16.318;2024-03-29T04:41:37;4.80;99.90
19307;DHT22;9788;48.194;16.318;2024-03-29T04:44:05;4.80;99.90
19307;DHT22;9788;48.194;16.318;2024-03-29T04:46:34;4.80;99.90
19307;DHT22;9788;48.194;16.318;2024-03-29T04:49:01;4.80;99.90
19307;DHT22;9788;48.194;16.318;2024-03-29T04:51:28;4.80;99.90
19307;DHT22;9788;48.194;16.318;2024-03-29T04:53:55;4.80;99.90
19307;DHT22;9788;48.194;16.318;2024-03-29T04:56:22;4.80;99.90
19307;DHT22;9788;48.194;16.318;2024-03-29T04:58:51;4.80;99.90
19307;DHT22;9788;48.194;16.318;2024-03-29T05:01:18;4.80;99.90
19307;DHT22;9788;48.194;16.318;2024-03-29T05:03:45;4.80;99.90
19307;DHT22;9788;48.194;16.318;2024-03-29T05:06:12;4.70;99.90
19307;DHT22;9788;48.194;16.318;2024-03-29T05:08:40;4.80;99.90
19307;DHT22;9788;48.194;16.318;2024-03-29T05:11:07;4.80;99.90
19307;DHT22;9788;48.194;16.318;2024-03-29T05:13:36;4.80;99.90
19307;DHT22;9788;48.194;16.318;2024-03-29T05:16:06;4.80;99.90
19307;DHT22;9788;48.194;16.318;2024-03-29T05:18:33;4.80;99.90
19307;DHT22;9788;48.194;16.318;2024-03-29T05:21:00;4.80;99.90
19307;DHT22;9788;48.194;16.318;2024-03-29T05:23:28;4.80;99.90
19307;DHT22;9788;48.194;16.318;2024-03-29T05:25:55;4.70;99.90
19307;DHT22;9788;48.194;16.318;2024-03-29T05:28:22;4.70;99.90
19307;DHT22;9788;48.194;16.318;2024-03-29T05:30:49;4.70;99.90
19307;DHT22;9788;48.194;16.318;2024-03-29T05:33:18;4.70;99.90
19307;DHT22;9788;48.194;16.318;2024-03-29T05:35:45;4.80;99.90
19307;DHT22;9788;48.194;16.318;2024-03-29T05:38:12;4.80;99.90
19307;DHT22;9788;48.194;16.318;2024-03-29T05:40:40;4.90;99.90
19307;DHT22;9788;48.194;16.318;2024-03-29T05:43:07;5.00;99.90
19307;DHT22;9788;48.194;16.318;2024-03-29T05:45:34;5.10;99.90
19307;DHT22;9788;48.194;16.318;2024-03-29T05:48:01;5.20;99.90
19307;DHT22;9788;48.194;16.318;2024-03-29T05:50:30;5.30;99.90
19307;DHT22;9788;48.194;16.318;2024-03-29T05:52:59;5.40;99.90
19307;DHT22;9788;48.194;16.318;2024-03-29T05:55:27;5.60;99.90
19307;DHT22;9788;48.194;16.318;2024-03-29T05:57:54;5.60;99.90
19307;DHT22;9788;48.194;16.318;2024-03-29T06:00:21;5.60;99.90
19307;DHT22;9788;48.194;16.318;2024-03-29T06:02:50;5.70;99.90
19307;DHT22;9788;48.194;16.318;2024-03-29T06:05:18;5.80;99.90
19307;DHT22;9788;48.194;16.318;2024-03-29T06:07:47;5.90;99.90
19307;DHT22;9788;48.194;16.318;2024-03-29T06:10:15;6.10;99.90
19307;DHT22;9788;48.194;16.318;2024-03-29T06:12:42;6.20;99.90
19307;DHT22;9788;48.194;16.318;2024-03-29T06:15:10;6.30;99.90
19307;DHT22;9788;48.194;16.318;2024-03-29T06:17:55;6.40;99.90
19307;DHT22;9788;48.194;16.318;2024-03-29T06:20:22;6.60;99.90
19307;DHT22;9788;48.194;16.318;2024-03-29T06:22:50;6.80;99.90
19307;DHT22;9788;48.194;16.318;2024-03-29T06:25:18;7.00;99.90
19307;DHT22;9788;48.194;16.318;2024-03-29T06:27:45;7.30;99.90
19307;DHT22;9788;48.194;16.318;2024-03-29T06:30:15;7.70;99.90
19307;DHT22;9788;48.194;16.318;2024-03-29T06:32:43;8.00;99.90
19307;DHT22;9788;48.194;16.318;2024-03-29T06:35:12;8.20;99.90
19307;DHT22;9788;48.194;16.318;2024-03-29T06:37:40;8.40;99.90
19307;DHT22;9788;48.194;16.318;2024-03-29T06:40:12;8.70;99.90
19307;DHT22;9788;48.194;16.318;2024-03-29T06:42:39;8.90;99.90
19307;DHT22;9788;48.194;16.318;2024-03-29T06:45:07;9.30;99.90
19307;DHT22;9788;48.194;16.318;2024-03-29T06:47:36;9.50;99.90
19307;DHT22;9788;48.194;16.318;2024-03-29T06:50:04;9.70;99.90
19307;DHT22;9788;48.194;16.318;2024-03-29T06:52:33;10.20;99.40
19307;DHT22;9788;48.194;16.318;2024-03-29T06:55:02;11.60;96.20
19307;DHT22;9788;48.194;16.318;2024-03-29T06:57:31;13.50;92.20
19307;DHT22;9788;48.194;16.318;2024-03-29T06:59:59;14.80;88.70
19307;DHT22;9788;48.194;16.318;2024-03-29T07:02:27;15.40;85.70
19307;DHT22;9788;48.194;16.318;2024-03-29T07:04:55;15.40;83.10
19307;DHT22;9788;48.194;16.318;2024-03-29T07:07:22;15.40;83.00
19307;DHT22;9788;48.194;16.318;2024-03-29T07:09:49;15.70;82.40
19307;DHT22;9788;48.194;16.318;2024-03-29T07:12:17;16.20;80.60
19307;DHT22;9788;48.194;16.318;2024-03-29T07:14:46;16.20;80.40
19307;DHT22;9788;48.194;16.318;2024-03-29T07:17:15;16.60;79.50
19307;DHT22;9788;48.194;16.318;2024-03-29T07:19:43;16.70;78.50
19307;DHT22;9788;48.194;16.318;2024-03-29T07:22:10;17.30;78.40
19307;DHT22;9788;48.194;16.318;2024-03-29T07:24:38;17.30;77.80
19307;DHT22;9788;48.194;16.318;2024-03-29T07:27:05;17.50;78.80
19307;DHT22;9788;48.194;16.318;2024-03-29T07:29:33;17.60;78.10
19307;DHT22;9788;48.194;16.318;2024-03-29T07:32:02;17.70;77.40
19307;DHT22;9788;48.194;16.318;2024-03-29T07:34:29;17.80;77.30
19307;DHT22;9788;48.194;16.318;2024-03-29T07:36:57;18.00;75.60
19307;DHT22;9788;48.194;16.318;2024-03-29T07:39:24;18.10;74.90
19307;DHT22;9788;48.194;16.318;2024-03-29T07:41:51;18.60;74.90
19307;DHT22;9788;48.194;16.318;2024-03-29T07:44:20;19.10;74.20
19307;DHT22;9788;48.194;16.318;2024-03-29T07:46:49;19.30;73.00
19307;DHT22;9788;48.194;16.318;2024-03-29T07:49:18;19.60;73.10
19307;DHT22;9788;48.194;16.318;2024-03-29T07:51:47;19.70;72.90
19307;DHT22;9788;48.194;16.318;2024-03-29T07:54:15;19.70;72.70
19307;DHT22;9788;48.194;16.318;2024-03-29T07:56:44;20.00;72.60
19307;DHT22;9788;48.194;16.318;2024-03-29T07:59:11;19.60;72.90
19307;DHT22;9788;48.194;16.318;2024-03-29T08:01:40;19.10;74.80
19307;DHT22;9788;48.194;16.318;2024-03-29T08:04:09;18.70;76.40
19307;DHT22;9788;48.194;16.318;2024-03-29T08:06:37;19.00;76.80
19307;DHT22;9788;48.194;16.318;2024-03-29T08:09:05;19.60;75.70
19307;DHT22;9788;48.194;16.318;2024-03-29T08:11:33;20.30;75.30
19307;DHT22;9788;48.194;16.318;2024-03-29T08:14:01;19.70;76.50
19307;DHT22;9788;48.194;16.318;2024-03-29T08:16:28;20.20;76.30
19307;DHT22;9788;48.194;16.318;2024-03-29T08:18:55;20.50;75.90
19307;DHT22;9788;48.194;16.318;2024-03-29T08:21:24;20.20;77.50
19307;DHT22;9788;48.194;16.318;2024-03-29T08:23:54;20.20;78.50
19307;DHT22;9788;48.194;16.318;2024-03-29T08:26:22;20.00;79.50
19307;DHT22;9788;48.194;16.318;2024-03-29T08:28:50;20.00;80.30
19307;DHT22;9788;48.194;16.318;2024-03-29T08:31:21;19.40;81.80
19307;DHT22;9788;48.194;16.318;2024-03-29T08:33:48;19.60;82.40
19307;DHT22;9788;48.194;16.318;2024-03-29T08:36:18;19.60;83.10
19307;DHT22;9788;48.194;16.318;2024-03-29T08:38:46;20.10;82.60
19307;DHT22;9788;48.194;16.318;2024-03-29T08:41:14;20.10;82.30
19307;DHT22;9788;48.194;16.318;2024-03-29T08:43:41;20.00;82.80
19307;DHT22;9788;48.194;16.318;2024-03-29T08:46:09;20.20;83.00
19307;DHT22;9788;48.194;16.318;2024-03-29T08:48:36;19.50;84.20
19307;DHT22;9788;48.194;16.318;2024-03-29T08:51:08;19.70;85.70
19307;DHT22;9788;48.194;16.318;2024-03-29T08:53:35;19.90;85.10
19307;DHT22;9788;48.194;16.318;2024-03-29T08:56:03;20.20;84.90
19307;DHT22;9788;48.194;16.318;2024-03-29T08:58:35;20.50;84.70
19307;DHT22;9788;48.194;16.318;2024-03-29T09:01:04;20.70;83.60
19307;DHT22;9788;48.194;16.318;2024-03-29T09:03:34;21.30;82.80
19307;DHT22;9788;48.194;16.318;2024-03-29T09:06:01;21.50;82.10
19307;DHT22;9788;48.194;16.318;2024-03-29T09:08:29;21.80;82.00
19307;DHT22;9788;48.194;16.318;2024-03-29T09:10:56;22.20;80.90
19307;DHT22;9788;48.194;16.318;2024-03-29T09:13:24;21.60;81.70
19307;DHT22;9788;48.194;16.318;2024-03-29T09:15:53;21.30;82.10
19307;DHT22;9788;48.194;16.318;2024-03-29T09:18:23;20.80;83.50
19307;DHT22;9788;48.194;16.318;2024-03-29T09:20:56;20.70;84.00
19307;DHT22;9788;48.194;16.318;2024-03-29T09:23:25;21.10;83.60
19307;DHT22;9788;48.194;16.318;2024-03-29T09:25:56;21.00;83.50
19307;DHT22;9788;48.194;16.318;2024-03-29T09:28:26;21.20;83.80
19307;DHT22;9788;48.194;16.318;2024-03-29T09:31:00;22.20;81.90
19307;DHT22;9788;48.194;16.318;2024-03-29T09:33:29;22.40;81.30
19307;DHT22;9788;48.194;16.318;2024-03-29T09:35:56;22.10;81.00
19307;DHT22;9788;48.194;16.318;2024-03-29T09:38:25;22.00;78.50
19307;DHT22;9788;48.194;16.318;2024-03-29T09:41:00;22.30;78.30
19307;DHT22;9788;48.194;16.318;2024-03-29T09:43:30;22.30;78.50
19307;DHT22;9788;48.194;16.318;2024-03-29T09:45:59;21.90;79.20
19307;DHT22;9788;48.194;16.318;2024-03-29T09:48:29;21.40;79.80
19307;DHT22;9788;48.194;16.318;2024-03-29T09:51:03;21.20;79.80
19307;DHT22;9788;48.194;16.318;2024-03-29T09:53:33;21.60;79.70
19307;DHT22;9788;48.194;16.318;2024-03-29T09:56:03;21.50;78.70
19307;DHT22;9788;48.194;16.318;2024-03-29T09:58:32;21.60;78.90
19307;DHT22;9788;48.194;16.318;2024-03-29T10:01:02;21.90;78.20
19307;DHT22;9788;48.194;16.318;2024-03-29T10:03:31;22.40;76.80
19307;DHT22;9788;48.194;16.318;2024-03-29T10:06:00;22.50;76.60
19307;DHT22;9788;48.194;16.318;2024-03-29T10:08:29;21.80;77.60
19307;DHT22;9788;48.194;16.318;2024-03-29T10:10:57;21.80;78.30
19307;DHT22;9788;48.194;16.318;2024-03-29T10:13:25;21.90;78.00
19307;DHT22;9788;48.194;16.318;2024-03-29T10:15:53;22.50;78.10
19307;DHT22;9788;48.194;16.318;2024-03-29T10:18:23;22.80;76.40
19307;DHT22;9788;48.194;16.318;2024-03-29T10:20:59;23.00;75.60
19307;DHT22;9788;48.194;16.318;2024-03-29T10:23:27;22.80;75.70
19307;DHT22;9788;48.194;16.318;2024-03-29T10:25:55;21.90;76.80
19307;DHT22;9788;48.194;16.318;2024-03-29T10:28:23;21.40;77.90
19307;DHT22;9788;48.194;16.318;2024-03-29T10:30:51;21.80;78.30
19307;DHT22;9788;48.194;16.318;2024-03-29T10:33:18;21.90;77.70
19307;DHT22;9788;48.194;16.318;2024-03-29T10:35:47;21.50;77.90
19307;DHT22;9788;48.194;16.318;2024-03-29T10:38:14;21.50;77.60
19307;DHT22;9788;48.194;16.318;2024-03-29T10:40:42;21.40;78.20
19307;DHT22;9788;48.194;16.318;2024-03-29T10:43:11;21.60;77.80
19307;DHT22;9788;48.194;16.318;2024-03-29T10:45:39;21.70;77.60
19307;DHT22;9788;48.194;16.318;2024-03-29T10:48:10;22.00;77.90
19307;DHT22;9788;48.194;16.318;2024-03-29T10:50:42;21.90;79.00
19307;DHT22;9788;48.194;16.318;2024-03-29T10:53:11;21.90;77.50
19307;DHT22;9788;48.194;16.318;2024-03-29T10:55:41;21.40;78.50
19307;DHT22;9788;48.194;16.318;2024-03-29T10:58:10;21.00;79.20
19307;DHT22;9788;48.194;16.318;2024-03-29T11:00:53;20.70;80.30
19307;DHT22;9788;48.194;16.318;2024-03-29T11:03:28;20.30;81.50
19307;DHT22;9788;48.194;16.318;2024-03-29T11:06:03;20.40;81.70
19307;DHT22;9788;48.194;16.318;2024-03-29T11:08:33;20.40;82.50
19307;DHT22;9788;48.194;16.318;2024-03-29T11:11:05;20.10;82.60
19307;DHT22;9788;48.194;16.318;2024-03-29T11:13:37;20.00;82.80
19307;DHT22;9788;48.194;16.318;2024-03-29T11:16:05;19.60;84.10
19307;DHT22;9788;48.194;16.318;2024-03-29T11:18:33;19.70;84.20
19307;DHT22;9788;48.194;16.318;2024-03-29T11:21:01;20.00;83.80
19307;DHT22;9788;48.194;16.318;2024-03-29T11:23:33;20.50;82.80
19307;DHT22;9788;48.194;16.318;2024-03-29T11:26:01;21.20;82.00
19307;DHT22;9788;48.194;16.318;2024-03-29T11:28:33;21.00;82.10
19307;DHT22;9788;48.194;16.318;2024-03-29T11:31:03;21.00;82.30
19307;DHT22;9788;48.194;16.318;2024-03-29T11:33:32;21.10;82.00
19307;DHT22;9788;48.194;16.318;2024-03-29T11:36:05;20.90;82.50
19307;DHT22;9788;48.194;16.318;2024-03-29T11:38:35;20.60;83.10
19307;DHT22;9788;48.194;16.318;2024-03-29T11:41:07;20.70;83.40
19307;DHT22;9788;48.194;16.318;2024-03-29T11:43:37;20.80;83.10
19307;DHT22;9788;48.194;16.318;2024-03-29T11:46:06;21.20;82.50
19307;DHT22;9788;48.194;16.318;2024-03-29T11:48:34;20.90;82.80
19307;DHT22;9788;48.194;16.318;2024-03-29T11:51:04;20.50;83.90
19307;DHT22;9788;48.194;16.318;2024-03-29T11:53:36;20.50;84.00
19307;DHT22;9788;48.194;16.318;2024-03-29T11:56:06;20.30;83.90
19307;DHT22;9788;48.194;16.318;2024-03-29T11:58:38;20.20;84.30
19307;DHT22;9788;48.194;16.318;2024-03-29T12:01:09;20.30;84.50
19307;DHT22;9788;48.194;16.318;2024-03-29T12:03:40;20.60;83.70
19307;DHT22;9788;48.194;16.318;2024-03-29T12:06:08;20.50;84.30
19307;DHT22;9788;48.194;16.318;2024-03-29T12:08:38;20.30;84.70
19307;DHT22;9788;48.194;16.318;2024-03-29T12:11:07;20.50;84.80
19307;DHT22;9788;48.194;16.318;2024-03-29T12:13:35;20.60;84.70
19307;DHT22;9788;48.194;16.318;2024-03-29T12:16:04;20.90;84.20
19307;DHT22;9788;48.194;16.318;2024-03-29T12:18:33;21.30;83.80
19307;DHT22;9788;48.194;16.318;2024-03-29T12:21:02;21.50;83.10
19307;DHT22;9788;48.194;16.318;2024-03-29T12:23:30;22.10;82.60
19307;DHT22;9788;48.194;16.318;2024-03-29T12:26:03;22.30;81.80
19307;DHT22;9788;48.194;16.318;2024-03-29T12:28:30;22.40;81.10
19307;DHT22;9788;48.194;16.318;2024-03-29T12:31:01;22.20;81.10
19307;DHT22;9788;48.194;16.318;2024-03-29T12:33:29;22.10;80.70
19307;DHT22;9788;48.194;16.318;2024-03-29T12:35:58;21.90;76.80
19307;DHT22;9788;48.194;16.318;2024-03-29T12:38:25;21.80;76.20
19307;DHT22;9788;48.194;16.318;2024-03-29T12:40:53;21.70;77.10
19307;DHT22;9788;48.194;16.318;2024-03-29T12:43:23;21.70;77.80
19307;DHT22;9788;48.194;16.318;2024-03-29T12:45:51;21.50;78.40
19307;DHT22;9788;48.194;16.318;2024-03-29T12:48:20;21.30;79.10
19307;DHT22;9788;48.194;16.318;2024-03-29T12:50:49;21.30;78.90
19307;DHT22;9788;48.194;16.318;2024-03-29T12:53:17;21.40;78.50
19307;DHT22;9788;48.194;16.318;2024-03-29T12:55:46;21.40;78.90
19307;DHT22;9788;48.194;16.318;2024-03-29T12:58:14;21.50;79.00
19307;DHT22;9788;48.194;16.318;2024-03-29T13:00:44;21.40;79.20
19307;DHT22;9788;48.194;16.318;2024-03-29T13:03:12;21.30;78.90
19307;DHT22;9788;48.194;16.318;2024-03-29T13:05:40;21.10;79.70
19307;DHT22;9788;48.194;16.318;2024-03-29T13:08:08;21.40;79.90
19307;DHT22;9788;48.194;16.318;2024-03-29T13:10:37;21.40;80.00
19307;DHT22;9788;48.194;16.318;2024-03-29T13:13:05;21.50;80.10
19307;DHT22;9788;48.194;16.318;2024-03-29T13:15:34;21.30;80.00
19307;DHT22;9788;48.194;16.318;2024-03-29T13:18:04;21.30;80.60
19307;DHT22;9788;48.194;16.318;2024-03-29T13:20:34;21.30;80.80
19307;DHT22;9788;48.194;16.318;2024-03-29T13:23:07;21.30;80.70
19307;DHT22;9788;48.194;16.318;2024-03-29T13:25:39;21.10;81.10
19307;DHT22;9788;48.194;16.318;2024-03-29T13:28:09;21.10;81.70
19307;DHT22;9788;48.194;16.318;2024-03-29T13:30:38;21.20;81.50
19307;DHT22;9788;48.194;16.318;2024-03-29T13:33:10;21.20;81.70
19307;DHT22;9788;48.194;16.318;2024-03-29T13:35:38;21.20;82.10
19307;DHT22;9788;48.194;16.318;2024-03-29T13:38:06;21.20;82.50
19307;DHT22;9788;48.194;16.318;2024-03-29T13:40:34;21.10;82.60
19307;DHT22;9788;48.194;16.318;2024-03-29T13:43:02;21.10;82.30
19307;DHT22;9788;48.194;16.318;2024-03-29T13:45:30;21.20;82.30
19307;DHT22;9788;48.194;16.318;2024-03-29T13:47:57;21.40;82.20
19307;DHT22;9788;48.194;16.318;2024-03-29T13:50:27;21.50;82.10
19307;DHT22;9788;48.194;16.318;2024-03-29T13:52:58;21.60;81.20
19307;DHT22;9788;48.194;16.318;2024-03-29T13:55:26;21.70;81.50
19307;DHT22;9788;48.194;16.318;2024-03-29T13:57:54;21.80;81.10
19307;DHT22;9788;48.194;16.318;2024-03-29T14:00:21;21.80;80.50
19307;DHT22;9788;48.194;16.318;2024-03-29T14:02:49;21.80;79.80
19307;DHT22;9788;48.194;16.318;2024-03-29T14:05:16;21.90;78.30
19307;DHT22;9788;48.194;16.318;2024-03-29T14:07:47;22.00;78.30
19307;DHT22;9788;48.194;16.318;2024-03-29T14:10:16;22.20;78.10
19307;DHT22;9788;48.194;16.318;2024-03-29T14:12:43;22.30;78.50
19307;DHT22;9788;48.194;16.318;2024-03-29T14:15:14;22.40;77.80
19307;DHT22;9788;48.194;16.318;2024-03-29T14:17:43;22.50;77.10
19307;DHT22;9788;48.194;16.318;2024-03-29T14:20:11;22.40;76.00
19307;DHT22;9788;48.194;16.318;2024-03-29T14:22:41;22.50;75.30
19307;DHT22;9788;48.194;16.318;2024-03-29T14:25:10;22.50;73.90
19307;DHT22;9788;48.194;16.318;2024-03-29T14:27:39;22.60;73.70
19307;DHT22;9788;48.194;16.318;2024-03-29T14:30:14;22.60;73.50
19307;DHT22;9788;48.194;16.318;2024-03-29T14:32:46;22.70;72.80
19307;DHT22;9788;48.194;16.318;2024-03-29T14:35:14;22.70;72.50
19307;DHT22;9788;48.194;16.318;2024-03-29T14:37:51;22.60;72.50
19307;DHT22;9788;48.194;16.318;2024-03-29T14:40:20;22.70;72.70
19307;DHT22;9788;48.194;16.318;2024-03-29T14:42:47;22.70;72.90
19307;DHT22;9788;48.194;16.318;2024-03-29T14:45:14;22.70;72.40
19307;DHT22;9788;48.194;16.318;2024-03-29T14:47:42;22.70;72.30
19307;DHT22;9788;48.194;16.318;2024-03-29T14:50:10;22.70;72.80
19307;DHT22;9788;48.194;16.318;2024-03-29T14:52:37;22.70;73.70
19307;DHT22;9788;48.194;16.318;2024-03-29T14:55:05;22.70;73.60
19307;DHT22;9788;48.194;16.318;2024-03-29T14:57:33;22.60;73.90
19307;DHT22;9788;48.194;16.318;2024-03-29T15:00:01;22.50;74.70
19307;DHT22;9788;48.194;16.318;2024-03-29T15:02:28;22.40;74.10
19307;DHT22;9788;48.194;16.318;2024-03-29T15:04:57;22.30;73.80
19307;DHT22;9788;48.194;16.318;2024-03-29T15:07:27;22.30;74.40
19307;DHT22;9788;48.194;16.318;2024-03-29T15:09:54;22.20;74.40
19307;DHT22;9788;48.194;16.318;2024-03-29T15:12:22;22.20;74.70
19307;DHT22;9788;48.194;16.318;2024-03-29T15:14:51;22.10;74.60
19307;DHT22;9788;48.194;16.318;2024-03-29T15:17:21;22.10;74.70
19307;DHT22;9788;48.194;16.318;2024-03-29T15:19:49;22.10;74.60
19307;DHT22;9788;48.194;16.318;2024-03-29T15:22:19;22.00;74.70
19307;DHT22;9788;48.194;16.318;2024-03-29T15:24:53;21.90;74.80
19307;DHT22;9788;48.194;16.318;2024-03-29T15:27:21;21.80;74.80
19307;DHT22;9788;48.194;16.318;2024-03-29T15:30:17;21.70;75.00
19307;DHT22;9788;48.194;16.318;2024-03-29T15:32:44;21.70;75.10
19307;DHT22;9788;48.194;16.318;2024-03-29T15:35:12;21.60;75.00
19307;DHT22;9788;48.194;16.318;2024-03-29T15:37:40;21.60;75.10
19307;DHT22;9788;48.194;16.318;2024-03-29T15:40:14;21.60;75.00
19307;DHT22;9788;48.194;16.318;2024-03-29T15:42:51;21.60;75.30
19307;DHT22;9788;48.194;16.318;2024-03-29T15:45:36;21.60;75.60